createdAt,value
2022-12-11T00:58:57.587Z,0.67
2022-12-11T01:01:26.104Z,-0.30
2022-12-11T01:03:54.202Z,0.78
2022-12-11T01:06:24.407Z,0.83
2022-12-11T01:09:10.759Z,0.78
2022-12-11T01:11:38.681Z,0.89
2022-12-11T01:14:05.996Z,0.95
2022-12-11T01:16:33.397Z,1.05
2022-12-11T01:19:01.359Z,1.03
2022-12-11T01:21:29.227Z,0.99
2022-12-11T01:23:56.616Z,1.06
2022-12-11T01:26:24.482Z,1.08
2022-12-11T01:28:52.239Z,1.10
2022-12-11T01:31:20.360Z,1.09
2022-12-11T01:33:48.523Z,0.99
2022-12-11T01:36:19.403Z,1.13
2022-12-11T01:38:48.368Z,1.15
2022-12-11T01:41:18.433Z,1.08
2022-12-11T01:44:00.538Z,0.96
2022-12-11T01:46:29.045Z,0.93
2022-12-11T01:48:57.584Z,0.39
2022-12-11T01:51:27.204Z,1.01
2022-12-11T01:54:01.448Z,0.97
2022-12-11T01:56:32.903Z,0.94
2022-12-11T01:59:07.636Z,0.91
2022-12-11T02:01:43.525Z,0.87
2022-12-11T02:04:16.370Z,0.84
2022-12-11T02:06:47.296Z,0.78
2022-12-11T02:09:18.523Z,0.79
2022-12-11T02:11:49.215Z,0.81
2022-12-11T02:14:45.396Z,0.77
2022-12-11T02:17:51.390Z,0.82
2022-12-11T02:20:30.026Z,0.91
2022-12-11T02:23:12.864Z,0.95
2022-12-11T02:26:21.792Z,0.90
2022-12-11T02:28:58.165Z,0.96
2022-12-11T02:31:33.083Z,0.88
2022-12-11T02:34:08.796Z,0.99
2022-12-11T02:36:42.023Z,0.38
2022-12-11T02:39:13.201Z,0.82
2022-12-11T02:41:49.447Z,0.84
2022-12-11T02:44:21.055Z,0.78
2022-12-11T02:46:48.379Z,0.78
2022-12-11T02:49:17.596Z,0.72
2022-12-11T02:51:45.743Z,0.82
2022-12-11T02:54:18.312Z,0.85
2022-12-11T02:56:52.818Z,0.87
2022-12-11T02:59:27.467Z,0.91
2022-12-11T03:01:54.832Z,0.93
2022-12-11T03:04:25.132Z,0.93
2022-12-11T03:06:56.329Z,0.83
2022-12-11T03:09:24.104Z,1.00
2022-12-11T03:11:52.738Z,0.97
2022-12-11T03:14:20.679Z,0.87
2022-12-11T03:17:14.496Z,0.82
2022-12-11T03:19:58.821Z,0.91
2022-12-11T03:22:36.232Z,0.85
2022-12-11T03:25:10.578Z,0.91
2022-12-11T03:27:44.074Z,0.90
2022-12-11T03:30:20.293Z,0.22
2022-12-11T03:32:55.963Z,0.77
2022-12-11T03:35:33.377Z,0.69
2022-12-11T03:38:06.488Z,0.64
2022-12-11T03:40:36.603Z,0.61
2022-12-11T03:43:05.431Z,0.68
2022-12-11T03:45:34.800Z,0.78
2022-12-11T03:48:03.443Z,0.81
2022-12-11T03:50:33.065Z,0.90
2022-12-11T03:53:02.194Z,0.91
2022-12-11T03:55:32.904Z,1.05
2022-12-11T03:58:00.483Z,1.08
2022-12-11T04:00:28.198Z,1.11
2022-12-11T04:03:14.615Z,1.15
2022-12-11T04:05:50.865Z,1.09
2022-12-11T04:08:23.855Z,1.07
2022-12-11T04:11:12.345Z,1.11
2022-12-11T04:13:41.255Z,1.12
2022-12-11T04:16:09.533Z,0.45
2022-12-11T04:18:55.702Z,0.94
2022-12-11T04:21:41.745Z,0.81
2022-12-11T04:24:18.574Z,0.88
2022-12-11T04:26:47.803Z,0.84
2022-12-11T04:29:15.585Z,0.16
2022-12-11T04:31:43.393Z,0.88
2022-12-11T04:34:10.928Z,0.73
2022-12-11T04:36:38.547Z,0.58
2022-12-11T04:39:06.557Z,0.59
2022-12-11T04:41:34.813Z,0.72
2022-12-11T04:44:02.168Z,0.72
2022-12-11T04:46:29.782Z,0.62
2022-12-11T04:48:58.157Z,0.62
2022-12-11T04:51:26.291Z,0.62
2022-12-11T04:53:54.557Z,0.08
2022-12-11T04:56:22.254Z,-0.10
2022-12-11T04:58:49.854Z,0.43
2022-12-11T05:01:21.130Z,-0.89
2022-12-11T05:03:49.013Z,0.25
2022-12-11T05:06:16.690Z,-0.39
2022-12-11T05:08:45.869Z,0.17
2022-12-11T05:11:15.563Z,-0.18
2022-12-11T05:13:42.990Z,0.09
2022-12-11T05:16:13.383Z,0.09
2022-12-11T05:18:41.015Z,0.21
2022-12-11T05:21:11.532Z,0.25
2022-12-11T05:23:39.469Z,0.03
2022-12-11T05:26:14.591Z,0.23
2022-12-11T05:28:43.081Z,-0.15
2022-12-11T05:31:14.747Z,0.22
2022-12-11T05:33:42.516Z,0.22
2022-12-11T05:36:16.131Z,0.25
2022-12-11T05:38:43.998Z,0.34
2022-12-11T05:41:13.785Z,0.42
2022-12-11T05:43:41.401Z,-0.06
2022-12-11T05:46:10.578Z,0.53
2022-12-11T05:48:38.555Z,0.57
2022-12-11T05:51:08.662Z,0.63
2022-12-11T05:53:38.023Z,0.67
2022-12-11T05:56:12.623Z,0.56
2022-12-11T05:58:41.207Z,0.54
2022-12-11T06:01:11.300Z,0.55
2022-12-11T06:03:39.294Z,0.53
2022-12-11T06:06:07.868Z,0.49
2022-12-11T06:08:36.059Z,0.46
2022-12-11T06:11:04.559Z,-0.09
2022-12-11T06:13:32.204Z,0.51
2022-12-11T06:16:04.195Z,0.46
2022-12-11T06:18:32.396Z,-0.13
2022-12-11T06:21:00.317Z,0.48
2022-12-11T06:23:27.575Z,0.23
2022-12-11T06:25:55.290Z,0.48
2022-12-11T06:28:22.879Z,0.48
2022-12-11T06:30:50.347Z,0.52
2022-12-11T06:33:17.817Z,0.38
2022-12-11T06:35:45.306Z,0.58
2022-12-11T06:38:12.887Z,0.57
2022-12-11T06:40:41.143Z,0.65
2022-12-11T06:43:08.423Z,0.67
2022-12-11T06:45:38.270Z,0.65
2022-12-11T06:48:06.432Z,0.59
2022-12-11T06:50:33.819Z,-0.09
2022-12-11T06:53:01.443Z,0.48
2022-12-11T06:55:29.573Z,0.48
2022-12-11T06:57:56.866Z,0.41
2022-12-11T07:00:24.235Z,0.43
2022-12-11T07:02:52.057Z,0.44
2022-12-11T07:05:19.919Z,0.41
2022-12-11T07:07:47.384Z,0.47
2022-12-11T07:10:15.276Z,0.47
2022-12-11T07:12:42.903Z,0.13
2022-12-11T07:15:10.794Z,-0.30
2022-12-11T07:17:38.586Z,-0.01
2022-12-11T07:20:06.774Z,0.05
2022-12-11T07:22:34.739Z,0.51
2022-12-11T07:25:02.488Z,0.45
2022-12-11T07:27:30.854Z,0.34
2022-12-11T07:29:58.161Z,0.37
2022-12-11T07:32:26.052Z,0.22
2022-12-11T07:34:53.655Z,0.39
2022-12-11T07:37:21.332Z,0.43
2022-12-11T07:39:49.514Z,0.55
2022-12-11T07:42:16.881Z,0.46
2022-12-11T07:44:44.441Z,0.46
2022-12-11T07:47:12.010Z,0.38
2022-12-11T07:49:39.624Z,0.31
2022-12-11T07:52:07.210Z,0.25
2022-12-11T07:54:34.743Z,0.27
2022-12-11T07:57:02.787Z,0.37
2022-12-11T07:59:30.224Z,0.30
2022-12-11T08:01:57.838Z,0.47
2022-12-11T08:04:25.715Z,-0.16
2022-12-11T08:06:53.057Z,-0.02
2022-12-11T08:09:22.872Z,0.77
2022-12-11T08:11:51.389Z,0.77
2022-12-11T08:14:19.920Z,0.79
2022-12-11T08:16:47.615Z,0.72
2022-12-11T08:19:15.515Z,0.72
2022-12-11T08:21:43.597Z,0.73
2022-12-11T08:24:11.510Z,0.77
2022-12-11T08:26:39.831Z,0.78
2022-12-11T08:29:07.345Z,0.77
2022-12-11T08:31:35.675Z,0.29
2022-12-11T08:34:03.568Z,0.78
2022-12-11T08:36:31.247Z,0.73
2022-12-11T08:38:59.450Z,0.81
2022-12-11T08:41:29.446Z,0.82
2022-12-11T08:43:58.823Z,0.25
2022-12-11T08:46:29.216Z,0.76
2022-12-11T08:48:58.016Z,0.86
2022-12-11T08:51:27.632Z,0.26
2022-12-11T08:54:00.182Z,0.94
2022-12-11T08:56:28.836Z,0.88
2022-12-11T08:58:56.843Z,0.37
2022-12-11T09:01:26.853Z,0.72
2022-12-11T09:03:55.814Z,0.63
2022-12-11T09:06:25.512Z,0.55
2022-12-11T09:08:54.065Z,0.41
2022-12-11T09:11:24.538Z,0.61
2022-12-11T09:13:51.898Z,0.58
2022-12-11T09:16:21.715Z,0.57
2022-12-11T09:18:51.778Z,0.62
2022-12-11T09:21:21.302Z,0.67
2022-12-11T09:23:49.056Z,0.62
2022-12-11T09:26:18.678Z,0.56
2022-12-11T09:28:47.438Z,0.56
2022-12-11T09:31:21.134Z,0.58
2022-12-11T09:33:49.913Z,0.64
2022-12-11T09:36:17.136Z,0.77
2022-12-11T09:38:45.420Z,0.81
2022-12-11T09:41:44.368Z,0.71
2022-12-11T09:44:11.832Z,0.61
2022-12-11T09:46:40.447Z,0.55
2022-12-11T09:49:29.139Z,0.40
2022-12-11T09:52:06.429Z,0.68
2022-12-11T09:54:34.964Z,0.58
2022-12-11T09:57:32.233Z,0.65
2022-12-11T10:00:11.697Z,0.11
2022-12-11T10:02:39.198Z,0.60
2022-12-11T10:05:26.024Z,0.49
2022-12-11T10:08:06.339Z,0.51
2022-12-11T10:10:45.767Z,0.42
2022-12-11T10:13:49.074Z,0.41
2022-12-11T10:16:44.188Z,0.48
2022-12-11T10:19:22.242Z,0.37
2022-12-11T10:21:52.107Z,0.40
2022-12-11T10:27:36.252Z,0.29
2022-12-11T10:30:16.077Z,0.37
2022-12-11T10:32:51.332Z,-0.19
2022-12-11T10:35:43.750Z,0.30
2022-12-11T10:38:17.256Z,0.37
2022-12-11T10:40:56.915Z,0.30
2022-12-11T10:43:37.919Z,0.33
2022-12-11T10:46:07.131Z,0.37
2022-12-11T10:48:34.944Z,0.42
2022-12-11T10:51:06.135Z,0.46
2022-12-11T10:53:35.136Z,0.54
2022-12-11T10:56:03.002Z,0.60
2022-12-11T10:58:34.881Z,0.47
2022-12-11T11:01:11.121Z,-0.15
2022-12-11T11:04:04.695Z,0.29
2022-12-11T11:06:33.040Z,-0.07
2022-12-11T11:09:01.907Z,0.36
2022-12-11T11:11:37.325Z,0.24
2022-12-11T11:14:17.793Z,0.17
2022-12-11T11:16:48.465Z,0.22
2022-12-11T11:19:36.615Z,0.01
2022-12-11T11:22:22.458Z,-0.05
2022-12-11T11:24:57.069Z,0.04
2022-12-11T11:27:46.832Z,0.19
2022-12-11T11:30:36.183Z,0.28
2022-12-11T11:33:24.378Z,0.18
2022-12-11T11:35:57.582Z,0.12
2022-12-11T11:38:40.128Z,0.03
2022-12-11T11:41:39.719Z,-0.03
2022-12-11T11:44:13.776Z,-0.04
2022-12-11T11:46:48.860Z,-0.06
2022-12-11T11:49:36.375Z,-0.16
2022-12-11T11:52:21.885Z,-0.52
2022-12-11T11:55:10.601Z,-0.05
2022-12-11T11:57:55.552Z,-0.34
2022-12-11T12:00:33.315Z,-0.29
2022-12-11T12:03:10.568Z,-0.47
2022-12-11T12:06:03.005Z,-0.48
2022-12-11T12:08:36.442Z,-0.48
2022-12-11T12:11:26.272Z,-0.53
2022-12-11T12:14:51.693Z,-0.53
2022-12-11T12:17:17.462Z,-0.54
2022-12-11T12:19:47.633Z,-0.62
2022-12-11T12:22:28.409Z,-0.61
2022-12-11T12:25:20.718Z,-0.63
2022-12-11T12:28:16.807Z,-0.63
2022-12-11T12:31:10.260Z,-0.73
2022-12-11T12:33:48.791Z,-0.69
2022-12-11T12:36:50.269Z,-0.82
2022-12-11T12:39:45.033Z,-0.77
2022-12-11T12:42:32.451Z,-0.81
2022-12-11T12:45:09.823Z,-0.91
2022-12-11T12:47:39.043Z,-0.80
2022-12-11T12:50:14.794Z,-0.78
2022-12-11T12:52:42.748Z,-0.73
2022-12-11T12:55:17.817Z,-0.63
2022-12-11T12:58:05.549Z,-0.69
2022-12-11T13:00:36.692Z,-0.77
2022-12-11T13:03:18.384Z,-0.84
2022-12-11T13:06:06.151Z,-0.89
2022-12-11T13:08:51.887Z,-0.96
2022-12-11T13:11:21.684Z,-0.91
2022-12-11T13:14:02.654Z,-0.93
2022-12-11T13:16:40.408Z,-0.98
2022-12-11T13:19:26.379Z,-0.94
2022-12-11T13:22:15.741Z,-0.85
2022-12-11T13:24:52.347Z,-0.88
2022-12-11T13:27:37.043Z,-1.42
2022-12-11T13:30:22.716Z,-0.87
2022-12-11T13:32:55.511Z,-0.94
2022-12-11T13:35:23.498Z,-2.10
2022-12-11T13:37:54.097Z,-1.13
2022-12-11T13:40:26.884Z,-0.94
2022-12-11T13:43:01.440Z,-0.98
2022-12-11T13:45:37.729Z,-1.00
2022-12-11T13:48:19.286Z,-0.98
2022-12-11T13:50:47.394Z,-0.96
2022-12-11T13:53:17.882Z,-1.03
2022-12-11T13:55:45.576Z,-0.99
2022-12-11T13:58:21.519Z,-1.07
2022-12-11T14:01:07.983Z,-1.06
2022-12-11T14:03:36.713Z,-2.09
2022-12-11T14:06:04.740Z,-1.09
2022-12-11T14:08:36.343Z,-1.06
2022-12-11T14:11:05.381Z,-1.21
2022-12-11T14:13:37.909Z,-1.26
2022-12-11T14:16:07.190Z,-1.48
2022-12-11T14:18:36.920Z,-1.82
2022-12-11T14:21:06.288Z,-1.27
2022-12-11T14:23:36.403Z,-1.23
2022-12-11T14:26:38.900Z,-1.25
2022-12-11T14:29:07.166Z,-1.51
2022-12-11T14:31:38.587Z,-1.74
2022-12-11T14:34:21.098Z,-1.42
2022-12-11T14:36:49.889Z,-1.46
2022-12-11T14:39:24.695Z,-1.05
2022-12-11T14:42:03.175Z,-1.90
2022-12-11T14:44:36.623Z,-0.98
2022-12-11T14:47:11.213Z,-1.48
2022-12-11T14:49:54.353Z,-0.96
2022-12-11T14:52:33.337Z,-1.55
2022-12-11T14:55:08.281Z,-1.03
2022-12-11T14:57:37.320Z,-1.44
2022-12-11T15:00:05.891Z,-2.03
2022-12-11T15:02:36.587Z,-1.00
2022-12-11T15:05:18.307Z,-1.38
2022-12-11T15:07:57.284Z,-1.01
2022-12-11T15:10:54.390Z,-1.02
2022-12-11T15:13:25.262Z,-1.10
2022-12-11T15:15:54.859Z,-1.24
2022-12-11T15:18:23.826Z,-1.07
2022-12-11T15:20:55.141Z,-1.27
2022-12-11T15:23:22.951Z,-1.13
2022-12-11T15:25:56.524Z,-1.33
2022-12-11T15:28:37.909Z,-1.50
2022-12-11T15:31:27.930Z,-1.15
2022-12-11T15:33:55.503Z,-1.19
2022-12-11T15:36:32.171Z,-2.22
2022-12-11T15:38:59.967Z,-1.22
2022-12-11T15:41:28.700Z,-1.18
2022-12-11T15:43:59.224Z,-1.23
2022-12-11T15:46:27.433Z,-1.08
2022-12-11T15:48:56.514Z,-1.07
2022-12-11T15:51:25.535Z,-1.43
2022-12-11T15:53:52.968Z,-0.93
2022-12-11T15:56:20.203Z,-1.03
2022-12-11T15:58:49.329Z,-1.02
2022-12-11T16:01:17.806Z,-0.95
2022-12-11T16:03:45.962Z,-1.14
2022-12-11T16:06:14.350Z,-0.96
2022-12-11T16:08:42.242Z,-0.99
2022-12-11T16:11:13.341Z,-1.05
2022-12-11T16:13:41.013Z,-1.67
2022-12-11T16:16:08.933Z,-1.63
2022-12-11T16:18:36.435Z,-0.82
2022-12-11T16:21:07.350Z,-1.00
2022-12-11T16:23:35.118Z,-0.79
2022-12-11T16:26:09.628Z,-0.76
2022-12-11T16:28:37.275Z,-1.06
2022-12-11T16:31:09.641Z,-1.27
2022-12-11T16:33:37.575Z,-0.89
2022-12-11T16:36:19.096Z,-0.74
2022-12-11T16:38:53.240Z,-0.72
2022-12-11T16:41:23.037Z,-1.09
2022-12-11T16:43:51.041Z,-0.68
2022-12-11T16:46:19.427Z,-0.66
2022-12-11T16:48:47.262Z,-0.63
2022-12-11T16:51:15.222Z,-1.22
2022-12-11T16:53:42.914Z,-0.58
2022-12-11T16:56:10.513Z,-0.52
2022-12-11T16:58:38.195Z,-0.53
2022-12-11T17:01:13.484Z,-0.62
2022-12-11T17:03:42.655Z,-0.54
2022-12-11T17:06:12.106Z,-0.59
2022-12-11T17:08:40.108Z,-0.55
2022-12-11T17:11:13.576Z,-0.86
2022-12-11T17:13:41.267Z,-0.57
2022-12-11T17:16:12.554Z,-0.96
2022-12-11T17:18:40.958Z,-0.56
2022-12-11T17:21:14.358Z,-0.54
2022-12-11T17:23:42.148Z,-0.56
2022-12-11T17:26:10.128Z,-0.64
2022-12-11T17:28:39.007Z,-0.55
2022-12-11T17:31:08.813Z,-0.47
2022-12-11T17:33:39.004Z,-0.47
2022-12-11T17:36:07.443Z,-1.22
2022-12-11T17:38:36.384Z,-0.61
2022-12-11T17:41:12.187Z,-0.42
2022-12-11T17:43:42.559Z,-0.40
2022-12-11T17:46:13.525Z,-0.42
2022-12-11T17:48:40.887Z,-1.28
2022-12-11T17:51:10.457Z,-0.39
2022-12-11T17:53:38.255Z,-0.32
2022-12-11T17:56:08.351Z,-0.33
2022-12-11T17:58:36.424Z,-0.58
2022-12-11T18:01:09.529Z,-0.27
2022-12-11T18:03:38.300Z,-0.73
2022-12-11T18:06:15.224Z,-0.28
2022-12-11T18:08:43.608Z,-0.92
2022-12-11T18:11:18.562Z,-0.39
2022-12-11T18:13:48.161Z,-0.13
2022-12-11T18:16:28.335Z,-0.13
2022-12-11T18:18:56.835Z,-0.27
2022-12-11T18:21:27.314Z,-0.04
2022-12-11T18:23:55.235Z,-0.15
2022-12-11T18:26:23.615Z,-0.20
2022-12-11T18:28:53.922Z,-0.92
2022-12-11T18:31:22.097Z,-0.03
2022-12-11T18:33:50.383Z,-0.01
2022-12-11T18:36:19.578Z,0.02
2022-12-11T18:38:48.227Z,0.01
2022-12-11T18:41:17.832Z,-0.03
2022-12-11T18:43:46.077Z,0.02
2022-12-11T18:46:15.941Z,0.02
2022-12-11T18:48:45.039Z,0.05
2022-12-11T18:51:20.340Z,-0.38
2022-12-11T18:53:48.062Z,0.06
2022-12-11T18:56:18.213Z,0.07
2022-12-11T18:58:46.789Z,0.05
2022-12-11T19:01:29.254Z,0.03
2022-12-11T19:04:04.181Z,0.06
2022-12-11T19:06:36.139Z,-0.45
2022-12-11T19:09:06.185Z,0.10
2022-12-11T19:11:35.160Z,0.15
2022-12-11T19:14:04.871Z,-0.68
2022-12-11T19:16:35.015Z,0.20
2022-12-11T19:19:06.377Z,0.27
2022-12-11T19:21:35.976Z,0.32
2022-12-11T19:24:04.138Z,0.31
2022-12-11T19:26:32.253Z,0.29
2022-12-11T19:29:00.489Z,0.28
2022-12-11T19:31:30.620Z,0.29
2022-12-11T19:33:58.587Z,-0.28
2022-12-11T19:36:28.514Z,0.27
2022-12-11T19:39:01.476Z,0.35
2022-12-11T19:41:30.698Z,0.34
2022-12-11T19:43:59.607Z,-0.07
2022-12-11T19:46:28.703Z,0.19
2022-12-11T19:48:57.932Z,0.27
2022-12-11T19:51:30.367Z,-0.04
2022-12-11T19:53:59.305Z,0.16
2022-12-11T19:56:27.015Z,0.29
2022-12-11T19:58:54.384Z,0.14
2022-12-11T20:01:28.861Z,0.28
2022-12-11T20:04:01.934Z,0.29
2022-12-11T20:06:31.797Z,0.33
2022-12-11T20:08:59.764Z,0.37
2022-12-11T20:11:27.337Z,0.26
2022-12-11T20:13:56.027Z,0.38
2022-12-11T20:16:39.605Z,0.12
2022-12-11T20:19:11.772Z,0.45
2022-12-11T20:21:39.638Z,0.40
2022-12-11T20:24:07.205Z,0.42
2022-12-11T20:26:36.878Z,0.39
2022-12-11T20:29:07.456Z,0.42
2022-12-11T20:31:36.499Z,0.02
2022-12-11T20:34:04.139Z,0.47
2022-12-11T20:36:32.549Z,0.49
2022-12-11T20:39:00.615Z,0.48
2022-12-11T20:41:28.494Z,0.06
2022-12-11T20:43:57.087Z,0.43
2022-12-11T20:46:26.680Z,0.47
2022-12-11T20:48:58.825Z,0.39
2022-12-11T20:51:27.147Z,0.09
2022-12-11T20:53:59.538Z,0.52
2022-12-11T20:56:30.739Z,0.53
2022-12-11T20:58:59.494Z,0.55
2022-12-11T21:01:30.895Z,0.04
2022-12-11T21:04:00.063Z,0.55
2022-12-11T21:06:32.081Z,0.55
2022-12-11T21:09:02.264Z,0.58
2022-12-11T21:11:29.843Z,0.48
2022-12-11T21:13:57.350Z,0.25
2022-12-11T21:16:25.912Z,0.66
2022-12-11T21:18:55.388Z,0.59
2022-12-11T21:21:22.693Z,0.56
2022-12-11T21:23:50.443Z,0.68
2022-12-11T21:26:18.243Z,0.67
2022-12-11T21:28:45.744Z,0.69
2022-12-11T21:31:16.201Z,0.04
2022-12-11T21:33:43.571Z,0.71
2022-12-11T21:36:12.709Z,0.60
2022-12-11T21:38:42.038Z,0.67
2022-12-11T21:41:13.883Z,0.69
2022-12-11T21:44:06.832Z,0.71
2022-12-11T21:46:30.616Z,0.36
2022-12-11T21:48:58.584Z,0.70
2022-12-11T21:51:41.511Z,0.77
2022-12-11T21:54:14.806Z,-0.12
2022-12-11T21:56:43.011Z,0.74
2022-12-11T21:59:10.356Z,0.82
2022-12-11T22:01:42.478Z,0.83
2022-12-11T22:04:10.979Z,0.82
2022-12-11T22:06:40.065Z,0.37
2022-12-11T22:09:08.399Z,0.37
2022-12-11T22:11:36.901Z,0.81
2022-12-11T22:14:04.605Z,-0.06
2022-12-11T22:16:32.233Z,0.84
2022-12-11T22:19:00.119Z,0.43
2022-12-11T22:21:27.776Z,0.88
2022-12-11T22:23:55.484Z,0.84
2022-12-11T22:26:26.349Z,0.89
2022-12-11T22:28:54.282Z,0.92
2022-12-11T22:31:25.192Z,0.63
2022-12-11T22:33:54.958Z,0.97
2022-12-11T22:36:24.368Z,1.01
2022-12-11T22:38:52.345Z,0.60
2022-12-11T22:41:31.116Z,1.07
2022-12-11T22:43:59.482Z,1.12
2022-12-11T22:46:29.762Z,1.11
2022-12-11T22:48:58.068Z,0.64
2022-12-11T22:51:25.954Z,0.59
2022-12-11T22:53:53.678Z,1.12
2022-12-11T22:56:21.392Z,1.13
2022-12-11T22:58:49.181Z,1.11
2022-12-11T23:01:23.289Z,1.11
2022-12-11T23:03:51.674Z,0.74
2022-12-11T23:06:21.563Z,1.14
2022-12-11T23:08:49.257Z,1.17
2022-12-11T23:11:25.172Z,1.21
2022-12-11T23:13:53.064Z,1.22
2022-12-11T23:16:21.829Z,1.28
2022-12-11T23:18:49.766Z,0.81
2022-12-11T23:21:17.626Z,1.28
2022-12-11T23:23:45.250Z,1.32
2022-12-11T23:26:15.083Z,1.35
2022-12-11T23:28:42.946Z,1.41
2022-12-11T23:31:10.676Z,1.43
2022-12-11T23:33:38.412Z,1.43
2022-12-11T23:36:06.661Z,1.45
2022-12-11T23:38:34.281Z,1.44
2022-12-11T23:41:03.986Z,0.97
2022-12-11T23:43:31.705Z,1.45
2022-12-11T23:45:59.100Z,0.44
2022-12-11T23:48:26.671Z,1.51
2022-12-11T23:51:01.603Z,1.52
2022-12-11T23:53:29.955Z,1.52
2022-12-11T23:56:02.309Z,1.52
2022-12-11T23:58:30.306Z,1.59
